Mike Planche — WDC6331 — position and weather

sailwx.info

Track history (hours):
 
Tides and Currents Weather Stations Pressure Air Temp Water Temp Dewpoint Dewpoint Depression Visibility Wind Speed Wind Dir Waves Ship Positions

Mike Planche

Owner: ACL Transportation Services LLC, Jeffersonville, IN. More information available from US FCC via Universal Licensing System and Coast Guard Vessel Documentation Center.

Last reported at 2014-Nov-24 03:28 UTC. Time now 2014-Nov-24 14:09 UTC.
Position N 29°38' W 094°18'.

Length 25 m; draft 3 m.

Type: Towing. MMSI: 367054810.

Date/timePositionNaut miles runAvg speedWind from/ knotsBaromVisibWave heightAir tempDewpointWater temp
2014-Nov-24 03:28N 29°38' W 094°18'8 5.9
2014-Nov-24 02:04N 29°42' W 094°09'  
2014-Nov-20 06:32N 29°28' W 094°51'7 6.7
2014-Nov-20 05:33N 29°33' W 094°55'7 7.1
2014-Nov-20 04:33N 29°40' W 094°58'6 6.1
2014-Nov-20 03:33N 29°44' W 095°03'2 0.9
2014-Nov-20 01:07N 29°46' W 095°05'0 0.2
2014-Nov-19 23:22N 29°46' W 095°05'1 0.3
2014-Nov-19 20:31N 29°46' W 095°07'0 0.3
2014-Nov-19 19:22N 29°46' W 095°06'1 0.2
2014-Nov-19 14:22N 29°46' W 095°05'5 5.6
2014-Nov-19 13:33N 29°43' W 095°01'7 6.6
2014-Nov-19 12:33N 29°38' W 094°58'  
2014-Nov-16 00:33N 29°43' W 091°32'5 4.9
2014-Nov-15 23:33N 29°40' W 091°27'5 5.0
2014-Nov-15 22:30N 29°39' W 091°21'5 4.8
2014-Nov-15 21:33N 29°39' W 091°16'5 5.1
2014-Nov-15 20:33N 29°41' W 091°11'2 1.8
2014-Nov-15 19:33N 29°41' W 091°09'4 4.3
2014-Nov-15 18:33N 29°38' W 091°05'22 3.6
2014-Nov-15 12:32N 29°36' W 090°40'6 2.7
2014-Nov-15 10:26N 29°34' W 090°34'4 4.2
2014-Nov-15 09:33N 29°34' W 090°30'27 3.3
2014-Nov-15 01:25N 29°49' W 090°04'9 0.4
2014-Nov-14 04:18N 29°57' W 090°02'4 5.3
2014-Nov-14 03:31N 29°55' W 090°06'  
Track history (hours):
 
Tides and Currents Weather Stations Pressure Air Temp Water Temp Dewpoint Dewpoint Depression Visibility Wind Speed Wind Dir Waves Ship Positions

Mike Planche

Owner: ACL Transportation Services LLC, Jeffersonville, IN. More information available from US FCC via Universal Licensing System and Coast Guard Vessel Documentation Center.

Last reported at 2014-Nov-24 03:28 UTC. Time now 2014-Nov-24 14:09 UTC.
Position N 29°38' W 094°18'.

Length 25 m; draft 3 m.

Type: Towing. MMSI: 367054810.

Date/timePositionNaut miles runAvg speedWind from/ knotsBaromVisibWave heightAir tempDewpointWater temp
2014-Nov-24 03:28N 29°38' W 094°18'8 5.9
2014-Nov-24 02:04N 29°42' W 094°09'  
2014-Nov-20 06:32N 29°28' W 094°51'7 6.7
2014-Nov-20 05:33N 29°33' W 094°55'7 7.1
2014-Nov-20 04:33N 29°40' W 094°58'6 6.1
2014-Nov-20 03:33N 29°44' W 095°03'2 0.9
2014-Nov-20 01:07N 29°46' W 095°05'0 0.2
2014-Nov-19 23:22N 29°46' W 095°05'1 0.3
2014-Nov-19 20:31N 29°46' W 095°07'0 0.3
2014-Nov-19 19:22N 29°46' W 095°06'1 0.2
2014-Nov-19 14:22N 29°46' W 095°05'5 5.6
2014-Nov-19 13:33N 29°43' W 095°01'7 6.6
2014-Nov-19 12:33N 29°38' W 094°58'  
2014-Nov-16 00:33N 29°43' W 091°32'5 4.9
2014-Nov-15 23:33N 29°40' W 091°27'5 5.0
2014-Nov-15 22:30N 29°39' W 091°21'5 4.8
2014-Nov-15 21:33N 29°39' W 091°16'5 5.1
2014-Nov-15 20:33N 29°41' W 091°11'2 1.8
2014-Nov-15 19:33N 29°41' W 091°09'4 4.3
2014-Nov-15 18:33N 29°38' W 091°05'22 3.6
2014-Nov-15 12:32N 29°36' W 090°40'6 2.7
2014-Nov-15 10:26N 29°34' W 090°34'4 4.2
2014-Nov-15 09:33N 29°34' W 090°30'27 3.3
2014-Nov-15 01:25N 29°49' W 090°04'9 0.4
2014-Nov-14 04:18N 29°57' W 090°02'4 5.3
2014-Nov-14 03:31N 29°55' W 090°06'  

Dump ship's entire track history